Ormond Beach, Florida
Current Conditions -  °F | °C
As of 12:53 AM on Thursday 27 Nov 2014 (Local Time) from KDAB Reporting Station
Clear Clear  
Wind Chill: 46°   Ceiling: Unl
Heat Index: 49°   Visibility: 10mi
Dew Point: 46°   Wind: 7mph
Humidity: 90%   Direction: 270°W
Pressure: 30.22"   Gusts: NA
Location:  29.29°N, 81.05°W
Report Text: KDAB 270553Z 27006KT 10SM CLR 09/08 A3022 RMK AO2 SLP233 T00940078 10122 20094 53008
Loading
Personal Weather Stations






























Interactive Weather Map New forecast layout! Learn more

10-Day Weather Forecast

Advertisements
Track Severe Weather on mobile